Wetterdaten: Woche 23.08.10 - 29.08.10 (KW34)
Datum Zeit Temp. Innen Temp. Aussen UV X Diff Temp. Feuchte Inne Feuchte Auss Sonnenschein Luftdruck Regen ab 0,1 Wind Sonnenschein T Regendauer Windben
23.08.2010 00:00 24,3 C 19,1 C 0,0 UV-I 0,0 C 69 % 94 % 0 % 1011,6 hPa 0,0 l/m 0,2 km/h (0 Bft) 0,00 h 0,00 h 0,3 km/h (0 Bft)
23.08.2010 01:00 24,2 C 19,1 C 0,0 UV-I 0,0 C 69 % 94 % 0 % 1010,7 hPa 0,0 l/m 0,6 km/h (0 Bft) 0,00 h 0,07 h 1,4 km/h (1 Bft)
23.08.2010 02:00 24,1 C 18,7 C 0,0 UV-I 0,0 C 69 % 95 % 0 % 1010,0 hPa 0,0 l/m 0,7 km/h (0 Bft) 0,00 h 0,00 h 0,5 km/h (0 Bft)
23.08.2010 03:00 24,0 C 18,6 C 0,0 UV-I 0,0 C 69 % 95 % 0 % 1009,0 hPa 0,1 l/m 1,2 km/h (1 Bft) 0,00 h 0,52 h 2,4 km/h (1 Bft)
23.08.2010 04:00 23,9 C 18,5 C 0,1 UV-I 0,0 C 70 % 95 % 0 % 1007,9 hPa 0,1 l/m 0,5 km/h (0 Bft) 0,00 h 0,35 h 0,8 km/h (0 Bft)
23.08.2010 05:00 23,9 C 18,5 C 0,0 UV-I 0,0 C 70 % 95 % 0 % 1007,0 hPa 2,1 l/m 0,3 km/h (0 Bft) 0,00 h 0,50 h 0,9 km/h (0 Bft)
23.08.2010 06:00 23,8 C 18,7 C 0,0 UV-I 0,0 C 71 % 96 % 0 % 1005,6 hPa 0,2 l/m 2,4 km/h (1 Bft) 0,00 h 0,37 h 2,9 km/h (1 Bft)
23.08.2010 07:00 23,6 C 18,8 C 0,1 UV-I 0,0 C 71 % 96 % 0 % 1004,7 hPa 0,8 l/m 4,8 km/h (1 Bft) 0,00 h 0,50 h 6,4 km/h (2 Bft)
23.08.2010 08:00 23,4 C 19,0 C 0,2 UV-I 0,0 C 72 % 96 % 0 % 1003,9 hPa 0,3 l/m 5,8 km/h (2 Bft) 0,00 h 0,70 h 6,2 km/h (2 Bft)
23.08.2010 09:00 23,5 C 19,3 C 0,6 UV-I 0,0 C 71 % 94 % 0 % 1003,5 hPa 0,1 l/m 5,0 km/h (1 Bft) 0,00 h 0,67 h 6,1 km/h (2 Bft)
23.08.2010 10:00 23,5 C 19,5 C 1,2 UV-I 0,0 C 72 % 94 % 0 % 1003,1 hPa 0,5 l/m 6,4 km/h (2 Bft) 0,00 h 0,43 h 7,4 km/h (2 Bft)
23.08.2010 11:00 23,7 C 20,0 C 1,2 UV-I 0,0 C 72 % 95 % 0 % 1002,2 hPa 1,6 l/m 5,4 km/h (1 Bft) 0,00 h 0,97 h 6,9 km/h (2 Bft)
23.08.2010 12:00 23,8 C 21,2 C 3,4 UV-I 0,9 C 73 % 92 % 27 % 1001,7 hPa 0,0 l/m 7,3 km/h (2 Bft) 0,00 h 0,37 h 8,4 km/h (2 Bft)
23.08.2010 13:00 24,2 C 22,7 C 2,9 UV-I 1,1 C 70 % 81 % 31 % 1000,9 hPa 0,4 l/m 10,7 km/h (2 Bft) 0,00 h 0,35 h 12,4 km/h (3 Bft)
23.08.2010 14:00 24,5 C 22,6 C 6,6 UV-I 2,0 C 69 % 80 % 53 % 1001,6 hPa 0,1 l/m 12,5 km/h (3 Bft) 0,37 h 0,25 h 13,9 km/h (3 Bft)
23.08.2010 15:00 25,6 C 23,7 C 5,6 UV-I 2,4 C 64 % 71 % 67 % 1002,3 hPa 0,0 l/m 12,1 km/h (2 Bft) 0,22 h 0,00 h 13,0 km/h (3 Bft)
23.08.2010 16:00 26,1 C 23,8 C 5,5 UV-I 2,8 C 59 % 65 % 78 % 1002,9 hPa 0,0 l/m 10,2 km/h (2 Bft) 0,42 h 0,00 h 13,9 km/h (3 Bft)
23.08.2010 17:00 26,1 C 23,2 C 3,1 UV-I 1,5 C 56 % 65 % 42 % 1002,7 hPa 0,0 l/m 7,5 km/h (2 Bft) 0,00 h 0,00 h 8,5 km/h (2 Bft)
23.08.2010 18:00 25,5 C 23,0 C 2,1 UV-I 0,7 C 56 % 63 % 21 % 1002,3 hPa 0,0 l/m 9,5 km/h (2 Bft) 0,00 h 0,00 h 9,9 km/h (2 Bft)
23.08.2010 19:00 25,0 C 22,2 C 0,6 UV-I 0,0 C 57 % 66 % 1 % 1002,2 hPa 0,0 l/m 4,7 km/h (1 Bft) 0,00 h 0,00 h 5,3 km/h (1 Bft)
23.08.2010 20:00 24,6 C 21,3 C 0,2 UV-I 0,0 C 58 % 69 % 0 % 1002,2 hPa 0,0 l/m 2,8 km/h (1 Bft) 0,00 h 0,00 h 3,0 km/h (1 Bft)
23.08.2010 21:00 24,1 C 20,0 C 0,0 UV-I 0,0 C 59 % 73 % 0 % 1002,6 hPa 0,0 l/m 0,6 km/h (0 Bft) 0,00 h 0,00 h 1,4 km/h (1 Bft)
23.08.2010 22:00 23,9 C 19,4 C 0,0 UV-I 0,0 C 60 % 77 % 0 % 1002,6 hPa 0,0 l/m 1,1 km/h (0 Bft) 0,00 h 0,00 h 1,5 km/h (1 Bft)
23.08.2010 23:00 23,7 C 19,6 C 0,0 UV-I 0,0 C 62 % 81 % 0 % 1002,8 hPa 1,8 l/m 4,1 km/h (1 Bft) 0,00 h 0,27 h 5,8 km/h (2 Bft)
24.08.2010 00:00 23,5 C 18,0 C 0,1 UV-I 0,0 C 65 % 88 % 0 % 1003,1 hPa 0,0 l/m 1,3 km/h (1 Bft) 0,00 h 0,00 h 2,2 km/h (1 Bft)
24.08.2010 01:00 23,0 C 17,5 C 0,1 UV-I 0,0 C 65 % 88 % 0 % 1003,8 hPa 0,0 l/m 4,1 km/h (1 Bft) 0,00 h 0,00 h 5,5 km/h (1 Bft)
24.08.2010 02:00 22,7 C 17,2 C 0,1 UV-I 0,0 C 64 % 88 % 0 % 1004,2 hPa 0,0 l/m 5,0 km/h (1 Bft) 0,00 h 0,00 h 6,1 km/h (2 Bft)
24.08.2010 03:00 22,5 C 16,9 C 0,1 UV-I 0,0 C 63 % 86 % 0 % 1004,8 hPa 0,0 l/m 6,6 km/h (2 Bft) 0,00 h 0,00 h 7,9 km/h (2 Bft)
24.08.2010 04:00 22,2 C 16,3 C 0,1 UV-I 0,0 C 62 % 85 % 0 % 1005,1 hPa 0,0 l/m 5,4 km/h (1 Bft) 0,00 h 0,00 h 6,8 km/h (2 Bft)
24.08.2010 05:00 21,9 C 15,3 C 0,1 UV-I 0,0 C 61 % 87 % 0 % 1005,6 hPa 0,0 l/m 4,1 km/h (1 Bft) 0,00 h 0,00 h 4,7 km/h (1 Bft)
24.08.2010 06:00 21,6 C 14,8 C 0,1 UV-I 0,0 C 61 % 88 % 0 % 1005,8 hPa 0,0 l/m 4,2 km/h (1 Bft) 0,00 h 0,00 h 6,3 km/h (2 Bft)
24.08.2010 07:00 21,3 C 14,6 C 0,4 UV-I 0,0 C 61 % 88 % 0 % 1006,5 hPa 0,0 l/m 3,2 km/h (1 Bft) 0,00 h 0,00 h 5,3 km/h (1 Bft)
24.08.2010 08:00 21,2 C 15,4 C 1,5 UV-I 1,0 C 62 % 87 % 28 % 1007,1 hPa 0,0 l/m 4,7 km/h (1 Bft) 0,13 h 0,00 h 7,9 km/h (2 Bft)
24.08.2010 09:00 21,5 C 16,3 C 2,2 UV-I 1,9 C 61 % 82 % 54 % 1008,2 hPa 0,0 l/m 5,8 km/h (2 Bft) 0,03 h 0,00 h 8,8 km/h (2 Bft)
24.08.2010 10:00 21,8 C 17,1 C 5,5 UV-I 3,5 C 59 % 75 % 91 % 1008,8 hPa 0,0 l/m 6,8 km/h (2 Bft) 0,80 h 0,00 h 9,8 km/h (2 Bft)
24.08.2010 11:00 22,0 C 18,0 C 6,4 UV-I 4,2 C 56 % 68 % 98 % 1009,5 hPa 0,0 l/m 7,3 km/h (2 Bft) 0,97 h 0,00 h 12,8 km/h (3 Bft)
24.08.2010 12:00 22,3 C 19,0 C 5,7 UV-I 5,0 C 53 % 61 % 100 % 1009,8 hPa 0,0 l/m 8,5 km/h (2 Bft) 0,87 h 0,00 h 10,6 km/h (2 Bft)
24.08.2010 13:00 22,8 C 19,6 C 8,6 UV-I 4,3 C 50 % 55 % 99 % 1010,2 hPa 0,0 l/m 9,4 km/h (2 Bft) 1,00 h 0,00 h 12,8 km/h (3 Bft)
24.08.2010 14:00 23,6 C 20,1 C 7,7 UV-I 3,7 C 47 % 53 % 91 % 1012,3 hPa 0,0 l/m 8,9 km/h (2 Bft) 0,73 h 0,00 h 12,4 km/h (3 Bft)
24.08.2010 15:00 24,5 C 20,3 C 6,0 UV-I 3,0 C 45 % 53 % 81 % 1011,9 hPa 0,0 l/m 9,4 km/h (2 Bft) 0,50 h 0,00 h 13,0 km/h (3 Bft)
24.08.2010 16:00 24,9 C 20,3 C 5,8 UV-I 2,7 C 44 % 54 % 74 % 1008,8 hPa 0,0 l/m 10,9 km/h (2 Bft) 0,47 h 0,00 h 14,1 km/h (3 Bft)
24.08.2010 17:00 25,4 C 20,5 C 4,3 UV-I 2,4 C 43 % 55 % 70 % 1012,6 hPa 0,0 l/m 10,1 km/h (2 Bft) 0,23 h 0,00 h 11,3 km/h (2 Bft)
24.08.2010 18:00 24,7 C 20,6 C 2,2 UV-I 0,6 C 45 % 54 % 17 % 1011,1 hPa 0,0 l/m 8,8 km/h (2 Bft) 0,00 h 0,00 h 11,4 km/h (2 Bft)
24.08.2010 19:00 24,3 C 19,7 C 1,0 UV-I 0,0 C 46 % 52 % 0 % 1010,7 hPa 0,0 l/m 10,0 km/h (2 Bft) 0,00 h 0,00 h 10,1 km/h (2 Bft)
24.08.2010 20:00 23,3 C 18,5 C 0,2 UV-I 0,0 C 46 % 55 % 0 % 1010,9 hPa 0,0 l/m 7,8 km/h (2 Bft) 0,00 h 0,00 h 9,6 km/h (2 Bft)
24.08.2010 21:00 22,7 C 17,7 C 0,0 UV-I 0,0 C 47 % 57 % 0 % 1011,6 hPa 0,0 l/m 7,7 km/h (2 Bft) 0,00 h 0,00 h 8,3 km/h (2 Bft)
24.08.2010 22:00 22,3 C 17,0 C 0,1 UV-I 0,0 C 48 % 61 % 0 % 1012,3 hPa 0,0 l/m 6,3 km/h (2 Bft) 0,00 h 0,00 h 7,5 km/h (2 Bft)
24.08.2010 23:00 22,0 C 16,4 C 0,0 UV-I 0,0 C 48 % 62 % 0 % 1012,9 hPa 0,0 l/m 7,0 km/h (2 Bft) 0,00 h 0,00 h 7,6 km/h (2 Bft)
25.08.2010 00:00 21,7 C 15,8 C 0,0 UV-I 0,0 C 49 % 65 % 0 % 1013,2 hPa 0,0 l/m 5,9 km/h (2 Bft) 0,00 h 0,00 h 8,2 km/h (2 Bft)
25.08.2010 01:00 21,5 C 15,2 C 0,0 UV-I 0,0 C 50 % 69 % 0 % 1013,7 hPa 0,0 l/m 5,5 km/h (1 Bft) 0,00 h 0,00 h 6,7 km/h (2 Bft)
25.08.2010 02:00 21,2 C 14,7 C 0,0 UV-I 0,0 C 52 % 73 % 0 % 1013,9 hPa 0,0 l/m 6,1 km/h (2 Bft) 0,00 h 0,00 h 6,2 km/h (2 Bft)
25.08.2010 03:00 21,1 C 14,1 C 0,0 UV-I 0,0 C 54 % 77 % 0 % 1014,4 hPa 0,0 l/m 3,4 km/h (1 Bft) 0,00 h 0,00 h 4,7 km/h (1 Bft)
25.08.2010 04:00 20,9 C 13,7 C 0,1 UV-I 0,0 C 55 % 81 % 0 % 1014,7 hPa 0,0 l/m 3,1 km/h (1 Bft) 0,00 h 0,00 h 4,8 km/h (1 Bft)
25.08.2010 05:00 20,8 C 13,4 C 0,1 UV-I 0,0 C 56 % 83 % 0 % 1014,8 hPa 0,0 l/m 3,2 km/h (1 Bft) 0,00 h 0,00 h 3,5 km/h (1 Bft)
25.08.2010 06:00 20,6 C 13,2 C 0,1 UV-I 0,0 C 57 % 85 % 0 % 1015,2 hPa 0,0 l/m 3,0 km/h (1 Bft) 0,00 h 0,00 h 4,5 km/h (1 Bft)
25.08.2010 07:00 20,6 C 13,4 C 0,6 UV-I 0,0 C 58 % 86 % 0 % 1015,6 hPa 0,0 l/m 3,7 km/h (1 Bft) 0,00 h 0,00 h 4,8 km/h (1 Bft)
25.08.2010 08:00 20,4 C 14,3 C 1,6 UV-I 1,1 C 59 % 85 % 28 % 1016,0 hPa 0,0 l/m 5,5 km/h (1 Bft) 0,13 h 0,00 h 6,3 km/h (2 Bft)
25.08.2010 09:00 20,6 C 15,7 C 3,0 UV-I 4,6 C 60 % 81 % 100 % 1016,5 hPa 0,0 l/m 6,5 km/h (2 Bft) 0,63 h 0,00 h 8,1 km/h (2 Bft)
25.08.2010 10:00 20,8 C 17,3 C 7,4 UV-I 5,7 C 60 % 76 % 100 % 1016,8 hPa 0,0 l/m 6,3 km/h (2 Bft) 0,67 h 0,00 h 5,8 km/h (2 Bft)
25.08.2010 11:00 21,4 C 18,5 C 6,2 UV-I 4,5 C 59 % 69 % 100 % 1017,0 hPa 0,0 l/m 7,1 km/h (2 Bft) 0,63 h 0,00 h 8,9 km/h (2 Bft)
25.08.2010 12:00 21,8 C 19,5 C 7,0 UV-I 5,2 C 57 % 65 % 100 % 1017,2 hPa 0,0 l/m 7,7 km/h (2 Bft) 1,00 h 0,00 h 9,1 km/h (2 Bft)
25.08.2010 13:00 22,5 C 20,4 C 8,8 UV-I 5,4 C 55 % 60 % 100 % 1017,0 hPa 0,0 l/m 7,1 km/h (2 Bft) 0,90 h 0,00 h 7,8 km/h (2 Bft)
25.08.2010 14:00 23,9 C 21,6 C 10,8 UV-I 5,6 C 52 % 56 % 100 % 1018,4 hPa 0,0 l/m 6,4 km/h (2 Bft) 0,93 h 0,00 h 7,6 km/h (2 Bft)
25.08.2010 15:00 25,4 C 22,5 C 9,8 UV-I 5,3 C 46 % 50 % 100 % 1016,9 hPa 0,0 l/m 5,2 km/h (1 Bft) 0,90 h 0,00 h 5,9 km/h (2 Bft)
25.08.2010 16:00 25,8 C 21,8 C 4,8 UV-I 3,2 C 44 % 52 % 80 % 1016,7 hPa 0,0 l/m 3,5 km/h (1 Bft) 0,37 h 0,00 h 4,1 km/h (1 Bft)
25.08.2010 17:00 24,9 C 20,8 C 2,2 UV-I 1,3 C 46 % 56 % 38 % 1016,4 hPa 0,0 l/m 1,8 km/h (1 Bft) 0,00 h 0,00 h 2,3 km/h (1 Bft)
25.08.2010 18:00 24,3 C 20,5 C 1,4 UV-I 0,7 C 48 % 58 % 19 % 1015,8 hPa 0,0 l/m 1,1 km/h (1 Bft) 0,00 h 0,00 h 1,5 km/h (1 Bft)
25.08.2010 19:00 23,9 C 19,9 C 0,7 UV-I 0,0 C 49 % 59 % 1 % 1015,4 hPa 0,0 l/m 1,0 km/h (0 Bft) 0,00 h 0,00 h 1,7 km/h (1 Bft)
25.08.2010 20:00 23,4 C 19,0 C 0,1 UV-I 0,0 C 50 % 62 % 0 % 1014,9 hPa 0,0 l/m 0,0 km/h (0 Bft) 0,00 h 0,10 h 0,0 km/h (0 Bft)
25.08.2010 21:00 23,2 C 18,3 C 0,0 UV-I 0,0 C 52 % 66 % 0 % 1015,1 hPa 0,0 l/m 0,0 km/h (0 Bft) 0,00 h 0,00 h 0,0 km/h (0 Bft)
25.08.2010 22:00 23,1 C 17,6 C 0,0 UV-I 0,0 C 54 % 72 % 0 % 1014,7 hPa 0,0 l/m 0,0 km/h (0 Bft) 0,00 h 0,07 h 0,0 km/h (0 Bft)
25.08.2010 23:00 23,0 C 17,3 C 0,0 UV-I 0,0 C 55 % 74 % 0 % 1014,3 hPa 0,0 l/m 0,0 km/h (0 Bft) 0,00 h 0,00 h 0,1 km/h (0 Bft)
26.08.2010 00:00 22,9 C 17,2 C 0,0 UV-I 0,0 C 56 % 75 % 0 % 1013,7 hPa 0,0 l/m 0,5 km/h (0 Bft) 0,00 h 0,48 h 1,0 km/h (0 Bft)
26.08.2010 01:00 22,7 C 16,5 C 0,0 UV-I 0,0 C 59 % 82 % 0 % 1013,3 hPa 0,4 l/m 1,0 km/h (0 Bft) 0,00 h 0,93 h 1,6 km/h (1 Bft)
26.08.2010 02:00 22,6 C 15,9 C 0,0 UV-I 0,0 C 61 % 87 % 0 % 1012,3 hPa 2,3 l/m 2,9 km/h (1 Bft) 0,00 h 1,00 h 3,9 km/h (1 Bft)
26.08.2010 03:00 22,5 C 15,3 C 0,0 UV-I 0,0 C 62 % 90 % 0 % 1011,9 hPa 9,8 l/m 1,9 km/h (1 Bft) 0,00 h 1,00 h 2,7 km/h (1 Bft)
26.08.2010 04:00 22,3 C 15,1 C 0,0 UV-I 0,0 C 63 % 93 % 0 % 1011,0 hPa 3,1 l/m 3,5 km/h (1 Bft) 0,00 h 0,92 h 5,2 km/h (1 Bft)
26.08.2010 05:00 22,2 C 15,2 C 0,0 UV-I 0,0 C 64 % 93 % 0 % 1009,7 hPa 0,8 l/m 4,4 km/h (1 Bft) 0,00 h 1,00 h 5,9 km/h (2 Bft)
26.08.2010 06:00 22,1 C 15,3 C 0,1 UV-I 0,0 C 65 % 94 % 0 % 1008,6 hPa 0,7 l/m 5,4 km/h (1 Bft) 0,00 h 0,43 h 6,2 km/h (2 Bft)
26.08.2010 07:00 22,2 C 15,8 C 0,3 UV-I 0,0 C 66 % 95 % 0 % 1008,3 hPa 0,2 l/m 4,3 km/h (1 Bft) 0,00 h 0,72 h 5,2 km/h (1 Bft)
26.08.2010 08:00 22,2 C 17,5 C 0,8 UV-I 0,2 C 68 % 95 % 4 % 1008,3 hPa 0,0 l/m 4,4 km/h (1 Bft) 0,00 h 0,07 h 6,1 km/h (2 Bft)
26.08.2010 09:00 22,3 C 19,0 C 1,3 UV-I 0,2 C 71 % 93 % 5 % 1007,9 hPa 0,1 l/m 6,3 km/h (2 Bft) 0,00 h 0,37 h 8,0 km/h (2 Bft)
26.08.2010 10:00 22,6 C 20,2 C 3,0 UV-I 1,5 C 72 % 89 % 43 % 1008,1 hPa 0,0 l/m 7,3 km/h (2 Bft) 0,00 h 0,00 h 9,8 km/h (2 Bft)
26.08.2010 11:00 22,9 C 21,1 C 2,4 UV-I 0,9 C 72 % 85 % 25 % 1008,5 hPa 0,0 l/m 8,2 km/h (2 Bft) 0,00 h 0,17 h 9,0 km/h (2 Bft)
26.08.2010 12:00 23,1 C 21,3 C 2,1 UV-I 0,3 C 72 % 84 % 10 % 1009,1 hPa 0,1 l/m 7,9 km/h (2 Bft) 0,00 h 0,67 h 9,7 km/h (2 Bft)
26.08.2010 13:00 23,2 C 21,1 C 3,3 UV-I 0,2 C 73 % 87 % 4 % 1009,3 hPa 0,2 l/m 6,7 km/h (2 Bft) 0,00 h 0,92 h 7,3 km/h (2 Bft)
26.08.2010 14:00 23,6 C 21,7 C 3,9 UV-I 1,6 C 73 % 85 % 45 % 1008,9 hPa 0,0 l/m 6,2 km/h (2 Bft) 0,00 h 0,00 h 7,3 km/h (2 Bft)
26.08.2010 15:00 23,7 C 21,9 C 2,1 UV-I 0,8 C 71 % 82 % 23 % 1009,0 hPa 0,0 l/m 6,6 km/h (2 Bft) 0,00 h 0,00 h 6,8 km/h (2 Bft)
26.08.2010 16:00 23,8 C 22,3 C 2,8 UV-I 1,1 C 71 % 81 % 32 % 1007,8 hPa 0,0 l/m 7,1 km/h (2 Bft) 0,00 h 0,00 h 8,3 km/h (2 Bft)
26.08.2010 17:00 24,0 C 22,6 C 2,5 UV-I 0,9 C 71 % 79 % 25 % 1007,1 hPa 0,0 l/m 7,7 km/h (2 Bft) 0,00 h 0,00 h 8,7 km/h (2 Bft)
26.08.2010 18:00 24,0 C 22,6 C 1,5 UV-I 0,2 C 70 % 78 % 7 % 1006,6 hPa 0,0 l/m 5,5 km/h (1 Bft) 0,00 h 0,00 h 6,4 km/h (2 Bft)
26.08.2010 19:00 24,0 C 22,4 C 0,6 UV-I 0,0 C 70 % 79 % 0 % 1005,9 hPa 0,0 l/m 3,9 km/h (1 Bft) 0,00 h 0,13 h 4,3 km/h (1 Bft)
26.08.2010 20:00 23,7 C 21,8 C 0,1 UV-I 0,0 C 71 % 80 % 0 % 1005,6 hPa 0,0 l/m 2,4 km/h (1 Bft) 0,00 h 0,20 h 4,1 km/h (1 Bft)
26.08.2010 21:00 23,6 C 21,3 C 0,1 UV-I 0,0 C 71 % 83 % 0 % 1005,0 hPa 0,0 l/m 2,6 km/h (1 Bft) 0,00 h 0,12 h 3,2 km/h (1 Bft)
26.08.2010 22:00 23,4 C 20,5 C 0,0 UV-I 0,0 C 72 % 85 % 0 % 1004,2 hPa 0,2 l/m 2,1 km/h (1 Bft) 0,00 h 0,85 h 2,5 km/h (1 Bft)
26.08.2010 23:00 23,2 C 19,8 C 0,1 UV-I 0,0 C 73 % 89 % 0 % 1003,2 hPa 0,0 l/m 0,5 km/h (0 Bft) 0,00 h 0,32 h 0,4 km/h (0 Bft)
27.08.2010 00:00 23,2 C 19,7 C 0,1 UV-I 0,0 C 74 % 90 % 0 % 1002,8 hPa 0,3 l/m 2,8 km/h (1 Bft) 0,00 h 1,00 h 3,8 km/h (1 Bft)
27.08.2010 01:00 23,0 C 19,5 C 0,1 UV-I 0,0 C 74 % 91 % 0 % 1002,2 hPa 0,2 l/m 4,7 km/h (1 Bft) 0,00 h 0,62 h 6,4 km/h (2 Bft)
27.08.2010 02:00 22,9 C 19,5 C 0,0 UV-I 0,0 C 75 % 91 % 0 % 1001,6 hPa 0,0 l/m 5,3 km/h (1 Bft) 0,00 h 0,45 h 5,0 km/h (1 Bft)
27.08.2010 03:00 23,0 C 19,2 C 0,0 UV-I 0,0 C 74 % 91 % 0 % 1001,1 hPa 1,4 l/m 0,5 km/h (0 Bft) 0,00 h 1,00 h 0,9 km/h (0 Bft)
27.08.2010 04:00 23,0 C 18,5 C 0,0 UV-I 0,0 C 74 % 93 % 0 % 1001,1 hPa 3,8 l/m 1,5 km/h (1 Bft) 0,00 h 1,00 h 2,5 km/h (1 Bft)
27.08.2010 05:00 22,9 C 17,9 C 0,0 UV-I 0,0 C 74 % 94 % 0 % 1001,0 hPa 1,3 l/m 0,7 km/h (0 Bft) 0,00 h 0,43 h 0,7 km/h (0 Bft)
27.08.2010 06:00 22,9 C 17,7 C 0,0 UV-I 0,0 C 74 % 94 % 0 % 1000,9 hPa 0,0 l/m 0,4 km/h (0 Bft) 0,00 h 0,00 h 0,4 km/h (0 Bft)
27.08.2010 07:00 22,7 C 17,8 C 0,2 UV-I 0,0 C 74 % 95 % 0 % 1000,9 hPa 0,0 l/m 0,6 km/h (0 Bft) 0,00 h 0,00 h 1,0 km/h (0 Bft)
27.08.2010 08:00 22,9 C 18,0 C 0,6 UV-I 0,0 C 74 % 95 % 0 % 1000,7 hPa 0,2 l/m 1,0 km/h (0 Bft) 0,00 h 0,45 h 1,6 km/h (1 Bft)
27.08.2010 09:00 23,0 C 18,0 C 0,2 UV-I 0,0 C 73 % 94 % 0 % 1001,1 hPa 3,7 l/m 0,8 km/h (0 Bft) 0,00 h 0,87 h 1,2 km/h (1 Bft)
27.08.2010 10:00 23,0 C 17,5 C 1,1 UV-I 0,1 C 72 % 94 % 4 % 1001,3 hPa 3,4 l/m 4,1 km/h (1 Bft) 0,00 h 0,38 h 4,3 km/h (1 Bft)
27.08.2010 11:00 23,2 C 17,9 C 2,6 UV-I 1,0 C 72 % 93 % 29 % 1001,6 hPa 0,0 l/m 4,6 km/h (1 Bft) 0,00 h 0,00 h 5,1 km/h (1 Bft)
27.08.2010 12:00 23,2 C 18,9 C 3,5 UV-I 2,3 C 70 % 89 % 63 % 1001,8 hPa 0,0 l/m 6,6 km/h (2 Bft) 0,27 h 0,00 h 7,0 km/h (2 Bft)
27.08.2010 13:00 23,2 C 18,9 C 2,8 UV-I 1,0 C 70 % 86 % 29 % 1002,7 hPa 0,0 l/m 7,8 km/h (2 Bft) 0,07 h 0,12 h 9,8 km/h (2 Bft)
27.08.2010 14:00 23,5 C 17,5 C 2,5 UV-I 1,3 C 68 % 85 % 37 % 1003,7 hPa 0,0 l/m 10,7 km/h (2 Bft) 0,10 h 0,00 h 11,0 km/h (2 Bft)
27.08.2010 15:00 23,2 C 15,6 C 1,3 UV-I 0,3 C 66 % 86 % 9 % 1004,8 hPa 0,0 l/m 15,3 km/h (3 Bft) 0,00 h 0,00 h 18,3 km/h (3 Bft)
27.08.2010 16:00 22,9 C 15,1 C 1,1 UV-I 0,3 C 65 % 85 % 9 % 1006,1 hPa 0,0 l/m 13,6 km/h (3 Bft) 0,00 h 0,00 h 14,0 km/h (3 Bft)
27.08.2010 17:00 22,6 C 14,7 C 0,6 UV-I 0,0 C 64 % 86 % 1 % 1007,0 hPa 0,0 l/m 11,4 km/h (2 Bft) 0,00 h 0,00 h 11,4 km/h (2 Bft)
27.08.2010 18:00 22,4 C 14,8 C 0,7 UV-I 0,1 C 65 % 85 % 2 % 1007,8 hPa 0,0 l/m 10,5 km/h (2 Bft) 0,00 h 0,00 h 10,5 km/h (2 Bft)
27.08.2010 19:00 22,3 C 14,6 C 0,4 UV-I 0,0 C 63 % 80 % 0 % 1008,5 hPa 0,0 l/m 8,9 km/h (2 Bft) 0,00 h 0,00 h 8,7 km/h (2 Bft)
27.08.2010 20:00 22,1 C 14,4 C 0,1 UV-I 0,0 C 63 % 82 % 0 % 1009,5 hPa 0,0 l/m 1,5 km/h (1 Bft) 0,00 h 0,00 h 2,3 km/h (1 Bft)
27.08.2010 21:00 22,0 C 14,2 C 0,1 UV-I 0,0 C 64 % 86 % 0 % 1010,6 hPa 0,0 l/m 0,0 km/h (0 Bft) 0,00 h 0,17 h 0,1 km/h (0 Bft)
27.08.2010 22:00 22,0 C 14,3 C 0,1 UV-I 0,0 C 64 % 87 % 0 % 1011,4 hPa 0,0 l/m 1,2 km/h (1 Bft) 0,00 h 0,30 h 2,8 km/h (1 Bft)
27.08.2010 23:00 21,9 C 14,1 C 0,1 UV-I 0,0 C 64 % 86 % 0 % 1011,8 hPa 0,0 l/m 2,4 km/h (1 Bft) 0,00 h 0,00 h 2,8 km/h (1 Bft)
28.08.2010 00:00 21,7 C 13,4 C 0,1 UV-I 0,0 C 63 % 86 % 0 % 1012,6 hPa 0,0 l/m 0,8 km/h (0 Bft) 0,00 h 0,00 h 1,2 km/h (1 Bft)
28.08.2010 01:00 21,5 C 12,5 C 0,0 UV-I 0,0 C 62 % 88 % 0 % 1013,4 hPa 0,0 l/m 0,3 km/h (0 Bft) 0,00 h 0,00 h 0,2 km/h (0 Bft)
28.08.2010 02:00 21,3 C 11,7 C 0,1 UV-I 0,0 C 61 % 89 % 0 % 1013,5 hPa 0,0 l/m 0,1 km/h (0 Bft) 0,00 h 0,03 h 0,1 km/h (0 Bft)
28.08.2010 03:00 21,2 C 11,7 C 0,1 UV-I 0,0 C 61 % 91 % 0 % 1014,3 hPa 0,0 l/m 0,2 km/h (0 Bft) 0,00 h 0,00 h 0,2 km/h (0 Bft)
28.08.2010 04:00 21,1 C 12,2 C 0,1 UV-I 0,0 C 60 % 90 % 0 % 1014,6 hPa 0,0 l/m 0,9 km/h (0 Bft) 0,00 h 0,00 h 1,4 km/h (1 Bft)
28.08.2010 05:00 21,1 C 12,1 C 0,1 UV-I 0,0 C 61 % 89 % 0 % 1015,1 hPa 0,0 l/m 0,6 km/h (0 Bft) 0,00 h 0,00 h 0,5 km/h (0 Bft)
28.08.2010 06:00 21,0 C 11,8 C 0,1 UV-I 0,0 C 61 % 89 % 0 % 1015,3 hPa 0,0 l/m 0,3 km/h (0 Bft) 0,00 h 0,00 h 0,4 km/h (0 Bft)
28.08.2010 07:00 20,9 C 11,4 C 0,6 UV-I 0,0 C 60 % 90 % 0 % 1015,7 hPa 0,0 l/m 1,7 km/h (1 Bft) 0,00 h 0,00 h 2,2 km/h (1 Bft)
28.08.2010 08:00 20,8 C 12,3 C 1,4 UV-I 1,2 C 59 % 89 % 31 % 1016,2 hPa 0,0 l/m 2,3 km/h (1 Bft) 0,25 h 0,00 h 3,0 km/h (1 Bft)
28.08.2010 09:00 20,8 C 13,9 C 2,6 UV-I 3,5 C 60 % 86 % 87 % 1016,6 hPa 0,0 l/m 1,6 km/h (1 Bft) 0,63 h 0,00 h 2,3 km/h (1 Bft)
28.08.2010 10:00 21,1 C 15,3 C 2,7 UV-I 2,6 C 60 % 81 % 72 % 1016,9 hPa 0,0 l/m 3,3 km/h (1 Bft) 0,52 h 0,00 h 3,8 km/h (1 Bft)
28.08.2010 11:00 21,4 C 15,9 C 3,6 UV-I 2,6 C 59 % 78 % 72 % 1017,1 hPa 0,0 l/m 4,8 km/h (1 Bft) 0,38 h 0,00 h 6,1 km/h (2 Bft)
28.08.2010 12:00 21,6 C 14,8 C 3,1 UV-I 1,7 C 59 % 81 % 44 % 1017,3 hPa 1,3 l/m 3,2 km/h (1 Bft) 0,33 h 0,32 h 4,1 km/h (1 Bft)
28.08.2010 13:00 21,9 C 15,9 C 8,1 UV-I 5,4 C 60 % 83 % 100 % 1017,0 hPa 0,0 l/m 4,7 km/h (1 Bft) 1,00 h 0,00 h 6,1 km/h (2 Bft)
28.08.2010 14:00 23,0 C 18,2 C 7,9 UV-I 5,3 C 57 % 74 % 99 % 1017,6 hPa 0,0 l/m 6,1 km/h (2 Bft) 1,00 h 0,00 h 7,5 km/h (2 Bft)
28.08.2010 15:00 23,8 C 17,7 C 6,2 UV-I 3,4 C 54 % 70 % 73 % 1017,1 hPa 0,0 l/m 10,5 km/h (2 Bft) 0,58 h 0,10 h 13,4 km/h (3 Bft)
28.08.2010 16:00 25,0 C 17,9 C 4,6 UV-I 2,8 C 49 % 67 % 66 % 1017,3 hPa 0,0 l/m 10,2 km/h (2 Bft) 0,45 h 0,13 h 9,8 km/h (2 Bft)
28.08.2010 17:00 24,0 C 16,5 C 1,9 UV-I 0,7 C 50 % 72 % 21 % 1017,0 hPa 0,1 l/m 4,9 km/h (1 Bft) 0,00 h 0,15 h 6,5 km/h (2 Bft)
28.08.2010 18:00 22,9 C 15,7 C 1,0 UV-I 0,1 C 50 % 70 % 4 % 1017,1 hPa 0,0 l/m 5,6 km/h (1 Bft) 0,00 h 0,03 h 7,9 km/h (2 Bft)
28.08.2010 19:00 22,4 C 15,6 C 0,8 UV-I 0,1 C 51 % 72 % 4 % 1016,9 hPa 0,0 l/m 3,2 km/h (1 Bft) 0,00 h 0,00 h 3,4 km/h (1 Bft)
28.08.2010 20:00 22,0 C 14,6 C 0,2 UV-I 0,0 C 53 % 75 % 0 % 1017,3 hPa 0,0 l/m 1,1 km/h (1 Bft) 0,00 h 0,00 h 1,1 km/h (0 Bft)
28.08.2010 21:00 21,6 C 13,3 C 0,0 UV-I 0,0 C 54 % 78 % 0 % 1017,5 hPa 0,0 l/m 0,3 km/h (0 Bft) 0,00 h 0,00 h 0,4 km/h (0 Bft)
28.08.2010 22:00 21,2 C 12,3 C 0,0 UV-I 0,0 C 54 % 83 % 0 % 1017,8 hPa 0,0 l/m 0,1 km/h (0 Bft) 0,00 h 0,00 h 0,6 km/h (0 Bft)
28.08.2010 23:00 20,9 C 12,1 C 0,0 UV-I 0,0 C 55 % 84 % 0 % 1017,5 hPa 0,0 l/m 0,4 km/h (0 Bft) 0,00 h 0,00 h 0,3 km/h (0 Bft)
29.08.2010 00:00 20,6 C 12,6 C 0,0 UV-I 0,0 C 55 % 84 % 0 % 1017,1 hPa 0,0 l/m 2,3 km/h (1 Bft) 0,00 h 0,00 h 3,7 km/h (1 Bft)
29.08.2010 01:00 20,3 C 12,5 C 0,0 UV-I 0,0 C 56 % 85 % 0 % 1016,8 hPa 0,6 l/m 3,7 km/h (1 Bft) 0,00 h 0,57 h 4,4 km/h (1 Bft)
29.08.2010 02:00 20,0 C 11,8 C 0,0 UV-I 0,0 C 59 % 90 % 0 % 1015,9 hPa 0,4 l/m 3,9 km/h (1 Bft) 0,00 h 0,63 h 4,8 km/h (1 Bft)
29.08.2010 03:00 19,8 C 11,7 C 0,0 UV-I 0,0 C 60 % 92 % 0 % 1015,4 hPa 1,5 l/m 2,2 km/h (1 Bft) 0,00 h 0,55 h 3,1 km/h (1 Bft)
29.08.2010 04:00 19,6 C 11,9 C 0,0 UV-I 0,0 C 62 % 92 % 0 % 1015,0 hPa 0,6 l/m 3,4 km/h (1 Bft) 0,00 h 0,88 h 3,4 km/h (1 Bft)
29.08.2010 05:00 19,6 C 12,1 C 0,0 UV-I 0,0 C 63 % 93 % 0 % 1014,8 hPa 0,6 l/m 3,2 km/h (1 Bft) 0,00 h 0,12 h 4,5 km/h (1 Bft)
29.08.2010 06:00 19,4 C 12,3 C 0,0 UV-I 0,0 C 64 % 94 % 0 % 1014,7 hPa 1,8 l/m 3,8 km/h (1 Bft) 0,00 h 0,42 h 4,8 km/h (1 Bft)
29.08.2010 07:00 19,4 C 12,3 C 0,1 UV-I 0,0 C 65 % 94 % 0 % 1014,4 hPa 1,0 l/m 4,2 km/h (1 Bft) 0,00 h 0,80 h 5,3 km/h (1 Bft)
29.08.2010 08:00 19,3 C 12,6 C 0,7 UV-I 0,0 C 66 % 94 % 0 % 1014,3 hPa 0,3 l/m 3,4 km/h (1 Bft) 0,00 h 0,30 h 4,4 km/h (1 Bft)
29.08.2010 09:00 19,4 C 13,1 C 1,1 UV-I 0,2 C 66 % 94 % 7 % 1014,1 hPa 0,1 l/m 3,9 km/h (1 Bft) 0,00 h 0,28 h 5,1 km/h (1 Bft)
29.08.2010 10:00 19,6 C 14,0 C 2,3 UV-I 1,4 C 66 % 93 % 39 % 1014,1 hPa 0,0 l/m 4,4 km/h (1 Bft) 0,00 h 0,00 h 5,9 km/h (2 Bft)
29.08.2010 11:00 19,9 C 15,2 C 3,4 UV-I 2,3 C 66 % 88 % 65 % 1013,7 hPa 0,0 l/m 6,4 km/h (2 Bft) 0,38 h 0,17 h 7,7 km/h (2 Bft)
29.08.2010 12:00 20,1 C 15,6 C 3,2 UV-I 1,4 C 64 % 83 % 40 % 1013,1 hPa 0,0 l/m 7,4 km/h (2 Bft) 0,00 h 0,20 h 7,9 km/h (2 Bft)
29.08.2010 13:00 20,4 C 16,5 C 4,7 UV-I 2,3 C 62 % 77 % 64 % 1012,5 hPa 0,0 l/m 9,1 km/h (2 Bft) 0,28 h 0,15 h 11,3 km/h (2 Bft)
29.08.2010 14:00 20,5 C 15,6 C 1,6 UV-I 0,4 C 61 % 80 % 11 % 1011,9 hPa 0,2 l/m 6,4 km/h (2 Bft) 0,00 h 0,17 h 6,9 km/h (2 Bft)
29.08.2010 15:00 20,2 C 15,4 C 1,7 UV-I 0,3 C 62 % 81 % 8 % 1010,9 hPa 0,0 l/m 3,8 km/h (1 Bft) 0,00 h 0,00 h 5,1 km/h (1 Bft)
29.08.2010 16:00 20,2 C 16,0 C 2,0 UV-I 0,5 C 60 % 73 % 14 % 1010,0 hPa 0,0 l/m 6,3 km/h (2 Bft) 0,00 h 0,00 h 7,0 km/h (2 Bft)
29.08.2010 17:00 20,2 C 15,9 C 1,1 UV-I 0,0 C 57 % 71 % 0 % 1009,2 hPa 0,0 l/m 7,4 km/h (2 Bft) 0,00 h 0,00 h 9,7 km/h (2 Bft)
29.08.2010 18:00 20,0 C 15,1 C 1,0 UV-I 0,1 C 59 % 79 % 2 % 1008,2 hPa 0,0 l/m 9,8 km/h (2 Bft) 0,00 h 0,00 h 11,7 km/h (2 Bft)
29.08.2010 19:00 19,7 C 13,7 C 0,3 UV-I 0,0 C 60 % 80 % 0 % 1008,1 hPa 2,9 l/m 8,5 km/h (2 Bft) 0,00 h 0,50 h 8,0 km/h (2 Bft)
29.08.2010 20:00 19,5 C 10,4 C 0,1 UV-I 0,0 C 60 % 88 % 0 % 1008,1 hPa 1,2 l/m 1,3 km/h (1 Bft) 0,00 h 0,82 h 1,5 km/h (1 Bft)
29.08.2010 21:00 19,1 C 9,9 C 0,1 UV-I 0,0 C 60 % 91 % 0 % 1007,6 hPa 0,3 l/m 2,7 km/h (1 Bft) 0,00 h 0,15 h 4,4 km/h (1 Bft)
29.08.2010 22:00 18,6 C 10,0 C 0,1 UV-I 0,0 C 61 % 93 % 0 % 1006,8 hPa 0,2 l/m 6,5 km/h (2 Bft) 0,00 h 0,55 h 7,4 km/h (2 Bft)
29.08.2010 23:00 18,1 C 11,0 C 0,1 UV-I 0,0 C 62 % 91 % 0 % 1005,4 hPa 0,0 l/m 13,1 km/h (3 Bft) 0,00 h 0,20 h 11,7 km/h (2 Bft)
Min-Datum _ 29.08.10 29.08.10 23.08.10 23.08.10 24.08.10 25.08.10 23.08.10 23.08.10 - 23.08.10 - - 23.08.10
_ Min-Zeit 23:29 21:17 00:00 00:00 16:52 15:22 00:00 13:42 - 00:00 - - 00:00
Minimum _ 18,1 C 9,8 C 0,0 UV-I 0,0 C 42 % 48 % 0 % 1000,6 hPa - 0,0 km/h (0 Bft) - - 0,0 km/h (0 Bft)
Max-Datum _ 23.08.10 23.08.10 25.08.10 25.08.10 27.08.10 23.08.10 23.08.10 25.08.10 26.08.10 27.08.10 23.08.10 23.08.10 24.08.10
_ Max-Zeit 16:56 15:22 13:40 13:44 02:15 05:59 14:38 14:40 03:29 15:55 14:47 03:35 16:34
Maximum _ 26,5 C 24,3 C 12,5 UV-I 7,4 C 75 % 96 % 100 % 1019,6 hPa 9,8 l/m 17,3 km/h
W-SW (3 Bft)
0,03 h 0,03 h 46,7 km/h
SO (6 Bft)
Durchschnitt _ 22,4 C 17,0 C 1,6 UV-I 0,8 C 61 % 81 % 20 % 1010,0 hPa #53,1 l/m 4,7 km/h (1 Bft) #19:09 h #31:48 h 5,7 km/h (1 Bft)
© 2012 W. Hausmann